Time;durP1;ratioP1;P1;durP2;ratioP2;P2;SDS_P1;SDS_P2;PMS_P1;PMS_P2;Temp;Humidity;BMP_temperature;BMP_pressure;BME280_temperature;BME280_humidity;BME280_pressure;Samples;Min_cycle;Max_cycle;Signal;HPM_P1;HPM_P2
2023/02/15 00:02:24;;;;;;;;;;;;;;;-1.94;100.00;97032.81;10529646;28;1572;-70
2023/02/15 00:07:26;;;;;;;;;;;;;;;-2.00;100.00;97036.09;10530621;28;1767;-70
2023/02/15 00:12:29;;;;;;;;;;;;;;;-1.89;100.00;97029.69;10521771;28;1973;-69
2023/02/15 00:17:31;;;;;;;;;;;;;;;-2.08;100.00;97028.19;10524149;28;1934;-69
2023/02/15 00:22:33;;;;;;;;;;;;;;;-2.14;100.00;97021.75;10500178;28;2091;-69
2023/02/15 00:27:36;;;;;;;;;;;;;;;-2.29;100.00;97026.84;10522385;28;1995;-70
2023/02/15 00:32:38;;;;;;;;;;;;;;;-2.34;100.00;97026.50;10519614;28;2031;-71
2023/02/15 00:37:41;;;;;;;;;;;;;;;-2.28;100.00;97017.97;10521676;28;1915;-72
2023/02/15 00:42:43;;;;;;;;;;;;;;;-2.38;100.00;97030.44;10523768;28;1978;-77
2023/02/15 00:47:45;;;;;;;;;;;;;;;-2.37;100.00;97021.56;10522640;28;1978;-69
2023/02/15 00:52:48;;;;;;;;;;;;;;;-2.36;100.00;97012.66;10520696;28;1974;-69
2023/02/15 00:57:50;;;;;;;;;;;;;;;-2.54;100.00;97010.19;10517993;28;2082;-70
2023/02/15 01:02:53;;;;;;;;;;;;;;;-2.61;100.00;96997.81;10520495;28;2102;-71
2023/02/15 01:07:55;;;;;;;;;;;;;;;-2.82;100.00;97004.34;10519079;28;2010;-71
2023/02/15 01:12:57;;;;;;;;;;;;;;;-2.91;100.00;96992.16;10526231;28;1974;-71
2023/02/15 01:18:00;;;;;;;;;;;;;;;-2.86;100.00;96981.97;10521851;28;2015;-69
2023/02/15 01:23:02;;;;;;;;;;;;;;;-2.73;100.00;96981.53;10525660;28;1997;-74
2023/02/15 01:28:04;;;;;;;;;;;;;;;-2.68;100.00;96975.75;10518561;28;1966;-69
2023/02/15 01:33:07;;;;;;;;;;;;;;;-2.87;100.00;96977.69;10526502;28;2016;-70
2023/02/15 01:38:10;;;;;;;;;;;;;;;-3.05;100.00;96975.19;10530142;28;1959;-69
2023/02/15 01:43:12;;;;;;;;;;;;;;;-3.13;100.00;96971.69;10529483;28;1974;-69
2023/02/15 01:48:14;;;;;;;;;;;;;;;-3.01;100.00;96959.88;10524991;28;1963;-69
2023/02/15 01:53:17;;;;;;;;;;;;;;;-2.83;100.00;96962.41;10527291;28;2043;-71
2023/02/15 01:58:19;;;;;;;;;;;;;;;-2.82;100.00;96956.97;10522698;28;1966;-70
2023/02/15 02:03:22;;;;;;;;;;;;;;;-2.55;100.00;96960.31;10524518;28;2023;-69
2023/02/15 02:08:24;;;;;;;;;;;;;;;-2.87;100.00;96948.72;10528067;28;1943;-70
2023/02/15 02:13:26;;;;;;;;;;;;;;;-2.71;100.00;96934.81;10523705;28;2025;-70
2023/02/15 02:18:29;;;;;;;;;;;;;;;-2.51;100.00;96935.31;10524500;28;2008;-70
2023/02/15 02:23:31;;;;;;;;;;;;;;;-2.36;100.00;96930.22;10519318;28;1979;-71
2023/02/15 02:28:33;;;;;;;;;;;;;;;-2.61;100.00;96939.91;10527067;28;2066;-71
2023/02/15 02:33:36;;;;;;;;;;;;;;;-2.68;100.00;96944.16;10521006;28;2006;-71
2023/02/15 02:38:38;;;;;;;;;;;;;;;-2.55;100.00;96939.25;10529328;28;1993;-70
2023/02/15 02:43:41;;;;;;;;;;;;;;;-2.38;100.00;96935.66;10520821;28;1970;-72
2023/02/15 02:48:43;;;;;;;;;;;;;;;-2.43;100.00;96931.84;10527111;28;2073;-70
2023/02/15 02:53:45;;;;;;;;;;;;;;;-2.59;100.00;96928.25;10530553;28;2006;-71
2023/02/15 02:58:48;;;;;;;;;;;;;;;-2.75;100.00;96923.75;10521759;28;2005;-72
2023/02/15 03:03:50;;;;;;;;;;;;;;;-2.61;100.00;96926.72;10502088;28;1956;-72
2023/02/15 03:08:52;;;;;;;;;;;;;;;-2.57;100.00;96922.81;10528236;28;2014;-70
2023/02/15 03:13:55;;;;;;;;;;;;;;;-2.40;100.00;96927.09;10525867;28;2068;-71
2023/02/15 03:18:58;;;;;;;;;;;;;;;-2.27;100.00;96923.97;10521459;28;1979;-69
2023/02/15 03:24:00;;;;;;;;;;;;;;;-2.18;100.00;96926.41;10526884;28;1927;-70
2023/02/15 03:29:02;;;;;;;;;;;;;;;-2.08;100.00;96915.72;10527470;28;1935;-68
2023/02/15 03:34:05;;;;;;;;;;;;;;;-2.05;100.00;96922.47;10526614;28;1986;-70
2023/02/15 03:39:07;;;;;;;;;;;;;;;-2.30;100.00;96917.19;10529937;28;1974;-70
2023/02/15 03:44:10;;;;;;;;;;;;;;;-2.32;100.00;96923.63;10526063;28;2069;-69
2023/02/15 03:49:12;;;;;;;;;;;;;;;-2.36;100.00;96925.75;10530330;28;1978;-71
2023/02/15 03:54:38;;;;;;;;;;;;;;;-2.43;100.00;96927.41;10522960;28;1977;-70
2023/02/15 04:05:03;;;;;;;;;;;;;;;-2.34;100.00;96923.81;10451205;28;2009;-70
2023/02/15 04:26:05;;;;;;;;;;;;;;;-2.08;100.00;96928.06;10519795;28;2035;-70
2023/02/15 04:31:08;;;;;;;;;;;;;;;-1.97;100.00;96925.09;10527724;28;1888;-70
2023/02/15 04:36:10;;;;;;;;;;;;;;;-2.02;100.00;96935.31;10530635;28;1931;-70
2023/02/15 04:41:13;;;;;;;;;;;;;;;-1.83;100.00;96929.69;10522162;28;1743;-69
2023/02/15 04:46:15;;;;;;;;;;;;;;;-1.88;100.00;96932.00;10526516;28;2112;-70
2023/02/15 04:51:17;;;;;;;;;;;;;;;-1.87;100.00;96928.38;10525174;28;2042;-71
2023/02/15 04:56:20;;;;;;;;;;;;;;;-1.88;100.00;96921.47;10524332;28;2016;-69
2023/02/15 05:01:22;;;;;;;;;;;;;;;-1.89;100.00;96919.00;10519139;28;2097;-70
2023/02/15 05:06:24;;;;;;;;;;;;;;;-1.84;100.00;96911.41;10520529;28;1923;-69
2023/02/15 05:11:27;;;;;;;;;;;;;;;-1.57;100.00;96924.19;10526381;28;2009;-69
2023/02/15 05:16:29;;;;;;;;;;;;;;;-1.49;100.00;96926.78;10536412;28;1999;-71
2023/02/15 05:21:31;;;;;;;;;;;;;;;-1.63;100.00;96920.41;10522416;28;1911;-70
2023/02/15 05:31:54;;;;;;;;;;;;;;;-1.77;100.00;96922.94;10523821;28;1972;-69
2023/02/15 05:36:56;;;;;;;;;;;;;;;-1.77;100.00;96926.38;10515326;28;2066;-70
2023/02/15 05:41:59;;;;;;;;;;;;;;;-1.72;100.00;96934.63;10519985;28;2068;-70
2023/02/15 05:47:02;;;;;;;;;;;;;;;-1.81;100.00;96935.59;10520920;28;2018;-69
2023/02/15 05:52:05;;;;;;;;;;;;;;;-1.77;100.00;96933.47;10524481;28;1961;-71
2023/02/15 05:57:07;;;;;;;;;;;;;;;-1.69;100.00;96936.91;10499472;28;2025;-76
2023/02/15 06:02:11;;;;;;;;;;;;;;;-1.61;100.00;96932.59;10517754;28;1984;-76
2023/02/15 06:07:13;;;;;;;;;;;;;;;-1.45;100.00;96929.91;10515929;28;1990;-71
2023/02/15 06:12:16;;;;;;;;;;;;;;;-1.32;100.00;96938.13;10514691;28;2005;-74
2023/02/15 06:17:18;;;;;;;;;;;;;;;-1.33;100.00;96941.75;10518150;28;1973;-72
2023/02/15 06:22:21;;;;;;;;;;;;;;;-1.52;100.00;96937.69;10524468;28;1935;-70
2023/02/15 06:27:23;;;;;;;;;;;;;;;-1.46;100.00;96947.56;10528605;28;1966;-70
2023/02/15 06:32:26;;;;;;;;;;;;;;;-1.27;100.00;96951.63;10532917;28;1973;-69
2023/02/15 06:37:28;;;;;;;;;;;;;;;-1.23;100.00;96947.63;10531554;28;1976;-69
2023/02/15 06:42:30;;;;;;;;;;;;;;;-1.13;100.00;96953.53;10525309;28;2012;-69
2023/02/15 06:47:33;;;;;;;;;;;;;;;-1.08;100.00;96950.41;10530627;28;2127;-70
2023/02/15 06:52:35;;;;;;;;;;;;;;;-1.13;100.00;96956.19;10538054;28;1954;-70
2023/02/15 06:57:38;;;;;;;;;;;;;;;-1.08;100.00;96958.31;10531255;28;1979;-71
2023/02/15 07:02:40;;;;;;;;;;;;;;;-0.96;100.00;96948.16;10532618;28;2104;-70
2023/02/15 07:07:43;;;;;;;;;;;;;;;-1.06;100.00;96952.84;10522638;28;2169;-73
2023/02/15 07:12:45;;;;;;;;;;;;;;;-1.08;100.00;96960.94;10544760;28;2035;-69
2023/02/15 07:17:48;;;;;;;;;;;;;;;-0.89;100.00;96957.03;10527925;28;1992;-69
2023/02/15 07:22:50;;;;;;;;;;;;;;;-0.73;100.00;96953.50;10529053;28;2141;-70
2023/02/15 07:27:52;;;;;;;;;;;;;;;-0.73;100.00;96956.16;10531418;28;2055;-70
2023/02/15 07:38:15;;;;;;;;;;;;;;;-0.83;100.00;96945.78;10527113;28;2282;-70
2023/02/15 07:43:18;;;;;;;;;;;;;;;-0.70;100.00;96947.88;10533435;28;2095;-75
2023/02/15 07:48:22;;;;;;;;;;;;;;;-0.69;100.00;96950.34;10533381;28;2039;-79
2023/02/15 07:53:26;;;;;;;;;;;;;;;-0.59;100.00;96934.28;10534054;28;2628;-77
2023/02/15 08:03:45;;;;;;;;;;;;;;;-0.37;100.00;96932.66;10530272;28;2025;-73
2023/02/15 08:08:47;;;;;;;;;;;;;;;-0.17;100.00;96925.88;10532815;28;2017;-75
2023/02/15 08:14:02;;;;;;;;;;;;;;;-0.38;100.00;96926.53;10529439;28;1969;-74
2023/02/15 08:19:04;;;;;;;;;;;;;;;-0.09;100.00;96924.97;10527064;28;2451;-74
2023/02/15 08:24:07;;;;;;;;;;;;;;;0.33;100.00;96921.78;10532389;28;2060;-74
2023/02/15 08:29:09;;;;;;;;;;;;;;;0.70;100.00;96920.03;10528498;28;2058;-73
2023/02/15 08:34:12;;;;;;;;;;;;;;;0.52;100.00;96905.38;10527592;28;1990;-71
2023/02/15 08:39:14;;;;;;;;;;;;;;;0.78;100.00;96917.31;10529461;28;1915;-72
2023/02/15 08:44:17;;;;;;;;;;;;;;;0.95;100.00;96912.59;10533810;28;1985;-73
2023/02/15 08:49:19;;;;;;;;;;;;;;;0.90;100.00;96899.13;10536526;28;2164;-75
2023/02/15 08:54:21;;;;;;;;;;;;;;;1.40;100.00;96908.03;10539542;28;2039;-75
2023/02/15 08:59:26;;;;;;;;;;;;;;;1.77;100.00;96906.97;10537682;28;2123;-76
2023/02/15 09:04:29;;;;;;;;;;;;;;;2.02;100.00;96902.06;10532279;28;2028;-75
2023/02/15 09:09:32;;;;;;;;;;;;;;;1.41;100.00;96905.22;10513317;28;2010;-73
2023/02/15 09:14:34;;;;;;;;;;;;;;;1.60;100.00;96901.94;10546929;28;1944;-71
2023/02/15 09:19:36;;;;;;;;;;;;;;;1.52;100.00;96899.38;10525739;28;2396;-72
2023/02/15 09:24:39;;;;;;;;;;;;;;;1.28;100.00;96905.88;10523228;28;2034;-72
2023/02/15 09:29:41;;;;;;;;;;;;;;;1.00;100.00;96908.41;10529995;28;2057;-73
2023/02/15 09:34:44;;;;;;;;;;;;;;;0.83;100.00;96899.06;10525679;28;2002;-76
2023/02/15 09:39:46;;;;;;;;;;;;;;;0.58;100.00;96905.66;10526314;28;2098;-75
2023/02/15 09:44:50;;;;;;;;;;;;;;;0.54;100.00;96908.66;10526639;28;2157;-76
2023/02/15 09:49:53;;;;;;;;;;;;;;;0.31;100.00;96918.47;10524552;28;2152;-74
2023/02/15 09:54:55;;;;;;;;;;;;;;;0.35;100.00;96917.13;10527632;28;2033;-74
2023/02/15 09:59:58;;;;;;;;;;;;;;;0.62;100.00;96915.66;10530917;28;2019;-74
2023/02/15 10:05:01;;;;;;;;;;;;;;;0.76;100.00;96916.66;10537252;28;2023;-77
2023/02/15 10:10:04;;;;;;;;;;;;;;;0.60;100.00;96915.03;10540692;28;2107;-73
2023/02/15 10:15:09;;;;;;;;;;;;;;;0.81;100.00;96914.28;10537799;28;2044;-74
2023/02/15 10:20:11;;;;;;;;;;;;;;;0.94;100.00;96911.78;10538382;28;2128;-74
2023/02/15 10:25:14;;;;;;;;;;;;;;;1.19;100.00;96909.66;10538803;28;2141;-74
2023/02/15 10:30:16;;;;;;;;;;;;;;;1.08;100.00;96900.38;10535890;28;2014;-74
2023/02/15 10:35:19;;;;;;;;;;;;;;;1.21;100.00;96901.50;10533420;28;2053;-75
2023/02/15 10:40:22;;;;;;;;;;;;;;;1.23;100.00;96894.22;10516269;28;2063;-72
2023/02/15 10:45:24;;;;;;;;;;;;;;;1.48;100.00;96887.53;10532284;28;1930;-73
2023/02/15 10:50:26;;;;;;;;;;;;;;;1.65;100.00;96881.97;10522404;28;2027;-73
2023/02/15 10:55:29;;;;;;;;;;;;;;;1.66;100.00;96878.34;10527959;28;2124;-72
2023/02/15 11:00:31;;;;;;;;;;;;;;;1.79;100.00;96871.31;10525367;28;2008;-73
2023/02/15 11:05:35;;;;;;;;;;;;;;;1.95;100.00;96859.59;10530562;28;2044;-72
2023/02/15 11:10:40;;;;;;;;;;;;;;;2.26;100.00;96845.13;10522392;28;2118;-70
2023/02/15 11:15:42;;;;;;;;;;;;;;;2.29;100.00;96842.06;10522387;28;2113;-70
2023/02/15 11:20:45;;;;;;;;;;;;;;;2.46;100.00;96843.38;10519085;28;2181;-70
2023/02/15 11:25:47;;;;;;;;;;;;;;;2.62;100.00;96827.16;10530449;28;2043;-71
2023/02/15 11:30:51;;;;;;;;;;;;;;;2.59;100.00;96827.53;10528548;28;2188;-71
2023/02/15 11:35:54;;;;;;;;;;;;;;;2.62;100.00;96819.19;10526877;28;2034;-73
2023/02/15 11:40:57;;;;;;;;;;;;;;;2.88;100.00;96807.03;10525979;28;2177;-71
2023/02/15 11:45:59;;;;;;;;;;;;;;;3.07;100.00;96792.16;10525551;28;2117;-76
2023/02/15 11:51:02;;;;;;;;;;;;;;;3.12;100.00;96795.03;10532259;28;1974;-75
2023/02/15 11:56:05;;;;;;;;;;;;;;;3.22;100.00;96780.31;10529906;28;2152;-71
2023/02/15 12:01:08;;;;;;;;;;;;;;;3.35;100.00;96776.03;10527140;28;2300;-70
2023/02/15 12:06:10;;;;;;;;;;;;;;;3.49;100.00;96765.19;10527285;28;2166;-71
2023/02/15 12:11:13;;;;;;;;;;;;;;;3.47;100.00;96761.94;10524153;28;2031;-70
2023/02/15 12:16:16;;;;;;;;;;;;;;;3.43;100.00;96762.53;10530906;28;1998;-71
2023/02/15 12:21:18;;;;;;;;;;;;;;;3.45;100.00;96752.53;10526836;28;2168;-71
2023/02/15 12:26:20;;;;;;;;;;;;;;;3.59;100.00;96746.19;10533373;28;2032;-71
2023/02/15 12:31:23;;;;;;;;;;;;;;;3.72;100.00;96748.03;10526123;28;2048;-71
2023/02/15 12:36:27;;;;;;;;;;;;;;;3.85;100.00;96733.88;10523785;28;2079;-71
2023/02/15 12:41:30;;;;;;;;;;;;;;;4.03;100.00;96718.91;10529834;28;2156;-70
2023/02/15 12:46:32;;;;;;;;;;;;;;;4.00;100.00;96723.81;10521144;28;2069;-71
2023/02/15 12:51:40;;;;;;;;;;;;;;;4.00;100.00;96723.81;10526796;28;1986;-70
2023/02/15 12:56:44;;;;;;;;;;;;;;;4.16;100.00;96723.38;10523396;28;2067;-70
2023/02/15 13:01:47;;;;;;;;;;;;;;;4.35;100.00;96716.34;10521280;28;2010;-71
2023/02/15 13:06:49;;;;;;;;;;;;;;;4.32;100.00;96701.59;10524479;28;1990;-71
2023/02/15 13:11:52;;;;;;;;;;;;;;;4.43;100.00;96696.66;10521729;28;2061;-71
2023/02/15 13:16:54;;;;;;;;;;;;;;;4.46;100.00;96698.91;10521984;28;2101;-71
2023/02/15 13:21:56;;;;;;;;;;;;;;;4.67;100.00;96697.75;10526964;28;2087;-72
2023/02/15 13:26:59;;;;;;;;;;;;;;;4.68;100.00;96684.22;10526355;28;1978;-75
2023/02/15 13:32:16;;;;;;;;;;;;;;;4.76;100.00;96677.81;10533922;28;2134;-73
2023/02/15 13:37:19;;;;;;;;;;;;;;;4.64;100.00;96683.00;10529626;28;2077;-71
2023/02/15 13:42:22;;;;;;;;;;;;;;;4.54;100.00;96683.47;10526307;28;1997;-70
2023/02/15 13:47:24;;;;;;;;;;;;;;;4.61;100.00;96689.59;10529608;28;2062;-72
2023/02/15 13:52:28;;;;;;;;;;;;;;;4.61;100.00;96680.78;10531864;28;2024;-71
2023/02/15 13:57:31;;;;;;;;;;;;;;;4.69;100.00;96685.84;10534034;28;2084;-73
2023/02/15 14:02:34;;;;;;;;;;;;;;;4.69;100.00;96685.84;10527598;28;2095;-71
2023/02/15 14:07:36;;;;;;;;;;;;;;;4.80;100.00;96681.69;10523479;28;2149;-70
2023/02/15 14:12:38;;;;;;;;;;;;;;;4.76;100.00;96681.28;10520468;28;2098;-71
2023/02/15 14:17:41;;;;;;;;;;;;;;;4.74;100.00;96682.53;10548908;28;1980;-72
2023/02/15 14:22:43;;;;;;;;;;;;;;;4.70;100.00;96678.66;10546770;28;2008;-71
2023/02/15 14:27:46;;;;;;;;;;;;;;;4.69;100.00;96669.06;10532889;28;1991;-70
2023/02/15 14:32:48;;;;;;;;;;;;;;;4.56;100.00;96670.75;10529587;28;2053;-72
2023/02/15 14:37:51;;;;;;;;;;;;;;;4.64;100.00;96667.03;10532173;28;2001;-72
2023/02/15 14:42:53;;;;;;;;;;;;;;;4.46;100.00;96658.97;10527274;28;2075;-71
2023/02/15 14:47:56;;;;;;;;;;;;;;;4.47;100.00;96660.59;10532452;28;2066;-70
2023/02/15 14:52:58;;;;;;;;;;;;;;;4.50;100.00;96662.81;10530803;28;2052;-70
2023/02/15 14:58:01;;;;;;;;;;;;;;;4.46;100.00;96661.63;10537038;28;2147;-70
2023/02/15 15:03:03;;;;;;;;;;;;;;;4.40;100.00;96667.78;10530182;28;2054;-71
2023/02/15 15:08:06;;;;;;;;;;;;;;;4.32;100.00;96668.84;10529684;28;1984;-74
2023/02/15 15:13:08;;;;;;;;;;;;;;;4.13;100.00;96662.56;10528936;28;2065;-77
2023/02/15 15:18:11;;;;;;;;;;;;;;;4.07;100.00;96666.06;10526779;28;2076;-74
2023/02/15 15:23:13;;;;;;;;;;;;;;;4.01;100.00;96667.75;10525269;28;2091;-72
2023/02/15 15:28:16;;;;;;;;;;;;;;;3.85;100.00;96667.38;10534485;28;2048;-70
2023/02/15 15:33:18;;;;;;;;;;;;;;;3.72;100.00;96663.75;10528980;28;2023;-71
2023/02/15 15:38:21;;;;;;;;;;;;;;;3.61;100.00;96677.66;10541763;27;2056;-71
2023/02/15 15:43:27;;;;;;;;;;;;;;;3.34;100.00;96676.06;10534098;28;2133;-72
2023/02/15 15:48:33;;;;;;;;;;;;;;;3.20;100.00;96676.09;10525433;28;2044;-71
2023/02/15 15:53:36;;;;;;;;;;;;;;;3.00;100.00;96696.53;10520989;28;2161;-74
2023/02/15 15:58:39;;;;;;;;;;;;;;;2.82;100.00;96699.75;10526635;28;2170;-75
2023/02/15 16:03:41;;;;;;;;;;;;;;;2.67;100.00;96694.63;10526304;28;2059;-71
2023/02/15 16:08:43;;;;;;;;;;;;;;;2.39;100.00;96699.25;10529993;28;2010;-72
2023/02/15 16:13:46;;;;;;;;;;;;;;;1.99;100.00;96703.59;10533275;28;2071;-72
2023/02/15 16:18:48;;;;;;;;;;;;;;;1.60;100.00;96711.13;10526257;28;2254;-71
2023/02/15 16:23:51;;;;;;;;;;;;;;;1.30;100.00;96709.66;10518563;28;2167;-71
2023/02/15 16:28:53;;;;;;;;;;;;;;;1.02;100.00;96731.66;10526183;28;2043;-72
2023/02/15 16:33:56;;;;;;;;;;;;;;;0.85;100.00;96748.81;10527731;28;2210;-72
2023/02/15 16:38:58;;;;;;;;;;;;;;;0.54;100.00;96744.59;10526994;28;2155;-72
2023/02/15 16:44:01;;;;;;;;;;;;;;;0.41;100.00;96743.66;10542024;28;2075;-72
2023/02/15 16:49:03;;;;;;;;;;;;;;;0.25;100.00;96756.09;10531168;28;2130;-73
2023/02/15 16:54:06;;;;;;;;;;;;;;;0.26;100.00;96757.72;10519436;28;2065;-73
2023/02/15 16:59:08;;;;;;;;;;;;;;;0.12;100.00;96758.53;10539147;28;1988;-71
2023/02/15 17:04:10;;;;;;;;;;;;;;;0.14;100.00;96755.72;10525371;28;2012;-72
2023/02/15 17:09:14;;;;;;;;;;;;;;;0.23;100.00;96749.31;10524092;28;1973;-71
2023/02/15 17:14:19;;;;;;;;;;;;;;;0.08;100.00;96761.75;10522298;28;2097;-71
2023/02/15 17:19:21;;;;;;;;;;;;;;;0.02;100.00;96765.13;10516768;28;2084;-71
2023/02/15 17:24:24;;;;;;;;;;;;;;;0.06;100.00;96766.38;10530174;28;2428;-70
2023/02/15 17:29:26;;;;;;;;;;;;;;;0.21;100.00;96767.22;10527719;28;1975;-72
2023/02/15 17:34:29;;;;;;;;;;;;;;;0.13;100.00;96775.25;10522509;28;2413;-71
2023/02/15 17:39:31;;;;;;;;;;;;;;;0.18;100.00;96778.94;10528747;28;2176;-70
2023/02/15 17:44:33;;;;;;;;;;;;;;;0.17;100.00;96772.03;10525588;28;2059;-72
2023/02/15 17:49:36;;;;;;;;;;;;;;;0.31;100.00;96780.94;10544826;28;2045;-72
2023/02/15 18:15:58;;;;;;;;;;;;;;;0.26;100.00;96786.00;10527157;28;2024;-71
2023/02/15 18:21:01;;;;;;;;;;;;;;;0.44;100.00;96789.03;10536059;28;2033;-72
2023/02/15 18:26:04;;;;;;;;;;;;;;;0.36;100.00;96791.78;10532485;28;2058;-72
2023/02/15 18:31:06;;;;;;;;;;;;;;;0.40;100.00;96787.78;10534414;28;2127;-70
2023/02/15 18:36:08;;;;;;;;;;;;;;;0.24;100.00;96799.38;10530793;28;2106;-72
2023/02/15 18:41:11;;;;;;;;;;;;;;;0.19;100.00;96791.19;10528527;28;2000;-72
2023/02/15 18:46:13;;;;;;;;;;;;;;;0.21;100.00;96788.38;10540070;28;2060;-72
2023/02/15 18:51:16;;;;;;;;;;;;;;;0.07;100.00;96792.66;10520325;28;1990;-72
2023/02/15 18:56:18;;;;;;;;;;;;;;;0.16;100.00;96786.25;10526074;28;2102;-73
2023/02/15 19:01:20;;;;;;;;;;;;;;;0.02;100.00;96781.00;10514312;28;2126;-72
2023/02/15 19:06:24;;;;;;;;;;;;;;;0.11;100.00;96793.09;10532739;28;2073;-71
2023/02/15 19:11:26;;;;;;;;;;;;;;;0.08;100.00;96796.13;10527535;28;2170;-71
2023/02/15 19:16:30;;;;;;;;;;;;;;;0.08;100.00;96798.75;10529560;28;2064;-70
2023/02/15 19:21:33;;;;;;;;;;;;;;;0.21;100.00;96797.13;10526760;28;2019;-70
2023/02/15 19:26:35;;;;;;;;;;;;;;;0.09;100.00;96803.03;10535727;28;2028;-78
2023/02/15 19:31:47;;;;;;;;;;;;;;;0.10;100.00;96796.75;10546594;28;2084;-76
2023/02/15 19:36:49;;;;;;;;;;;;;;;0.10;100.00;96797.56;10521804;28;2081;-75
2023/02/15 19:41:52;;;;;;;;;;;;;;;0.24;100.00;96793.28;10528470;28;2361;-72
2023/02/15 19:46:54;;;;;;;;;;;;;;;0.30;100.00;96795.19;10530393;28;2168;-70
2023/02/15 19:51:57;;;;;;;;;;;;;;;0.31;100.00;96799.47;10532911;28;2136;-72
2023/02/15 19:56:59;;;;;;;;;;;;;;;0.38;100.00;96799.53;10526122;28;1988;-71
2023/02/15 20:02:01;;;;;;;;;;;;;;;0.30;100.00;96792.53;10528351;28;1986;-71
2023/02/15 20:07:04;;;;;;;;;;;;;;;0.34;100.00;96793.00;10525956;28;2169;-71
2023/02/15 20:12:06;;;;;;;;;;;;;;;0.33;100.00;96786.91;10524798;28;1986;-73
2023/02/15 20:17:09;;;;;;;;;;;;;;;0.33;100.00;96781.59;10540779;28;2065;-70
2023/02/15 20:22:11;;;;;;;;;;;;;;;0.36;100.00;96783.88;10522750;28;2071;-72
2023/02/15 20:27:14;;;;;;;;;;;;;;;0.31;100.00;96783.59;10528897;28;1992;-71
2023/02/15 20:32:16;;;;;;;;;;;;;;;0.18;100.00;96768.38;10529392;28;1966;-69
2023/02/15 20:37:19;;;;;;;;;;;;;;;0.12;100.00;96771.75;10533377;28;2108;-70
2023/02/15 20:42:21;;;;;;;;;;;;;;;0.14;100.00;96772.41;10519990;28;2134;-71
2023/02/15 20:47:24;;;;;;;;;;;;;;;0.23;100.00;96770.47;10521108;28;2093;-70
2023/02/15 20:52:29;;;;;;;;;;;;;;;0.21;100.00;96762.75;10524359;28;2056;-71
2023/02/15 20:57:31;;;;;;;;;;;;;;;0.32;100.00;96772.03;10503937;28;2130;-72
2023/02/15 21:02:33;;;;;;;;;;;;;;;0.44;100.00;96773.16;10520252;28;2041;-72
2023/02/15 21:07:36;;;;;;;;;;;;;;;0.47;100.00;96772.81;10519204;28;2042;-71
2023/02/15 21:12:38;;;;;;;;;;;;;;;0.53;100.00;96772.06;10522749;28;2014;-73
2023/02/15 21:17:40;;;;;;;;;;;;;;;0.52;100.00;96775.72;10525096;28;2204;-72
2023/02/15 21:22:43;;;;;;;;;;;;;;;0.61;100.00;96773.78;10537508;28;2094;-72
2023/02/15 21:27:45;;;;;;;;;;;;;;;0.61;100.00;96778.25;10526463;28;2059;-71
2023/02/15 21:32:48;;;;;;;;;;;;;;;0.43;100.00;96782.13;10528965;28;2136;-73
2023/02/15 21:37:50;;;;;;;;;;;;;;;0.49;100.00;96775.28;10527021;28;2040;-72
2023/02/15 21:48:12;;;;;;;;;;;;;;;0.40;100.00;96776.41;10528212;28;2079;-73
2023/02/15 21:53:15;;;;;;;;;;;;;;;0.36;100.00;96775.94;10537237;28;2039;-70
2023/02/15 21:58:17;;;;;;;;;;;;;;;0.33;100.00;96776.31;10517411;28;2098;-70
2023/02/15 22:03:20;;;;;;;;;;;;;;;0.44;100.00;96772.34;10541480;28;2084;-72
2023/02/15 22:08:22;;;;;;;;;;;;;;;0.59;100.00;96781.09;10531890;28;2094;-70
2023/02/15 22:13:25;;;;;;;;;;;;;;;0.48;100.00;96774.44;10539071;28;2396;-71
2023/02/15 22:18:27;;;;;;;;;;;;;;;0.49;100.00;96767.34;10535215;28;2080;-71
2023/02/15 22:23:34;;;;;;;;;;;;;;;0.60;100.00;96761.56;10529548;28;2061;-71
2023/02/15 22:28:36;;;;;;;;;;;;;;;0.58;100.00;96754.84;10530286;28;2000;-72
2023/02/15 22:33:39;;;;;;;;;;;;;;;0.61;100.00;96746.50;10533066;28;2012;-72
2023/02/15 22:38:41;;;;;;;;;;;;;;;0.53;100.00;96737.69;10530481;28;1979;-71
2023/02/15 22:43:43;;;;;;;;;;;;;;;0.39;100.00;96730.59;10526837;28;2126;-72
2023/02/15 22:48:46;;;;;;;;;;;;;;;0.19;100.00;96735.66;10524502;28;2081;-70
2023/02/15 22:53:51;;;;;;;;;;;;;;;0.02;100.00;96731.59;10528765;28;2058;-69
2023/02/15 22:58:53;;;;;;;;;;;;;;;-0.10;100.00;96727.75;10529348;28;2022;-70
2023/02/15 23:03:56;;;;;;;;;;;;;;;-0.14;100.00;96723.84;10526699;28;1970;-71
2023/02/15 23:08:59;;;;;;;;;;;;;;;-0.22;100.00;96713.38;10531140;28;2105;-75
2023/02/15 23:14:02;;;;;;;;;;;;;;;-0.31;100.00;96710.00;10530845;28;2055;-77
2023/02/15 23:19:05;;;;;;;;;;;;;;;-0.42;100.00;96723.66;10524552;28;2235;-71
2023/02/15 23:24:07;;;;;;;;;;;;;;;-0.51;100.00;96730.00;10527640;28;2128;-77
2023/02/15 23:29:09;;;;;;;;;;;;;;;-0.55;100.00;96727.75;10505478;28;2075;-75
2023/02/15 23:34:12;;;;;;;;;;;;;;;-0.68;100.00;96719.63;10526881;28;1950;-78
2023/02/15 23:44:35;;;;;;;;;;;;;;;-0.60;100.00;96727.47;10521840;28;2024;-71
2023/02/15 23:49:37;;;;;;;;;;;;;;;-0.73;100.00;96714.06;10525779;28;2427;-71
2023/02/15 23:54:40;;;;;;;;;;;;;;;-0.86;100.00;96717.31;10526426;28;2008;-69
2023/02/15 23:59:42;;;;;;;;;;;;;;;-0.80;100.00;96709.69;10522332;28;2036;-71
